LFRC/CER METAR and TAF weather

Enter ICAO airport designator
Station Type Date Time Source
LFRC METAR 2019/04/21 22:00 UTC NOAA

LFRC 212200Z AUTO 10009KT CAVOK 13/05 Q1013


Station Type Date Time Source
LFRC Decoded METAR 2019/04/21 22:00 UTC NOAA

Cherbourg / Maupertus, France (LFRC) 49-39N 001-28W 139M
Apr 21, 2019 - 06:00 PM EDT / 2019.04.21 2200 UTC
Wind: from the E (100 degrees) at 10 MPH (9 KT):0
Visibility: greater than 7 mile(s):0
Temperature: 55 F (13 C)
Dew Point: 41 F (5 C)
Relative Humidity: 58%
Pressure (altimeter): 29.91 in. Hg (1013 hPa)
ob: LFRC 212200Z AUTO 10009KT CAVOK 13/05 Q1013
cycle: 22

Station Type Date Time Source
LFRC TAF 2008/10/12 17:07 UTC NOAA

TAF
AMD LFRC 121707Z 121721 CNL

Example: see airport list